Hillside Manor, New York
Current Conditions -  °F | °C
As of 3:51 PM on Sunday 23 Nov 2014 (Local Time) from KJFK Reporting Station
Broken Clouds Broken Clouds  
Wind Chill: 51°   Ceiling: 26000
Heat Index: 51°   Visibility: 10mi
Dew Point: 35°   Wind: 6mph
Humidity: 54%   Direction: 160°SSE
Pressure: 30.15"   Gusts: NA
Location:  40.7459°N, 73.6798°W
Report Text: KJFK 232051Z 16005KT 10SM FEW110 SCT180 BKN260 11/02 A3015 RMK AO2 SLP210 T01060017 58004 $
Loading
Personal Weather Stations






























Interactive Weather Map New forecast layout! Learn more

10-Day Weather Forecast

Advertisements
Track Severe Weather on mobile